Seward, AK

3:16 AM AKDT on October 24, 2014 (GMT -0800)
Seward | Change Station
CLOSE
Current Station
Airport
Location: Seward,
Elevation: 20 ft
Nearby Weather Stations

Elev 20 ft 60.13 °N, 149.42 °W | Updated 23 minutes ago

Clear
Clear
35 °F
Feels Like 27 °F
N
10
Wind Variable Wind from NNE

Today
High -- | Low -- °F
--% Chance of Precip.
Yesterday
High -- | Low -- °F
Precip. -- in
9:00 AM 6:22 PM
New Moon, 0% visible
Pressure 29.74 in
Visibility 10.0 miles
Clouds Clear
Windchill 27 °F
Dew Point 25 °F
Humidity 67%
Rainfall 0.00 in
Snow Depth 0 in , 1 in
UV 0 out of 12
Pollen Not available.
Air Quality Not available.
Flu Activity Sporadic
METAR PAWD 241053Z AUTO 02009KT 10SM CLR 02/M04 A2974 RMK AO2 SLP070 T00171039 TSNO

More Conditions Fewer Conditions

Pressure 29.74 in
Visibility 10.0 miles
Clouds Clear
Windchill 27 °F
Dew Point 25 °F
Humidity 67%
Rainfall 0.00 in
Snow Depth 0 in , 1 in
UV 0 out of 12
Pollen Not available.
Air Quality Not available.
Flu Activity Sporadic
METAR PAWD 241053Z AUTO 02009KT 10SM CLR 02/M04 A2974 RMK AO2 SLP070 T00171039 TSNO

More Conditions Fewer Conditions

10-Day Weather Forecast

Almanac

Astronomy

Oct. 24, 2014 Rise Set
Actual Time 9:00 AM AKDT 6:22 PM AKDT
Civil Twilight 8:16 AM AKDT 7:05 PM AKDT
Nautical Twilight 7:27 AM AKDT 7:54 PM AKDT
Astronomical Twilight 6:39 AM AKDT 8:42 PM AKDT
Moon 10:01 AM AKDT 6:53 PM AKDT
Length of Visible Light 10h 48m
Length of Day
9h 21m
Tomorrow will be 5m 19s shorter.
New Moon, 0% of the Moon is Illuminated
Today
New Moon
Oct 30
First Quarter
Nov 6
Full
Nov 14
Last Quarter
Nov 22
New

Today's Extremes

State Highs State Lows

Community

WunderPhotos

Upload Photos

1,764,518 photos uploaded!

WunderBlogs® & News

Nearby

Snow Depth

Station Depth Elevation
Grouse Creek Divide 0 in 700 ft
Cooper Lake 1 in 1200 ft
Summit Creek 3 in 1400 ft
Grandview 3 in 1100 ft
Turnagain Pass 7 in 1880 ft

Earthquake Activity

City Distance Mag. Time & Date
No recent earthquake activity has been reported nearby.
Minimum magnitude displayed is 2.5.

Coastal Water Temperatures

Place Temperature
No Stations Reporting

Nearby Weather Stations